Time;durP1;ratioP1;P1;durP2;ratioP2;P2;SDS_P1;SDS_P2;PMS_P1;PMS_P2;Temp;Humidity;BMP_temperature;BMP_pressure;BME280_temperature;BME280_humidity;BME280_pressure;Samples;Min_cycle;Max_cycle;Signal;HPM_P1;HPM_P2
2022/08/26 00:00:46;;;;;;;26.02;16.52;;;;;;;18.46;60.11;100596.25;4773732;29;20070;-80
2022/08/26 00:03:13;;;;;;;25.17;16.02;;;;;;;18.44;60.11;100600.69;4770778;29;20047;-78
2022/08/26 00:05:40;;;;;;;22.98;16.80;;;;;;;18.38;59.76;100605.28;4771297;29;20107;-78
2022/08/26 00:08:09;;;;;;;24.38;17.00;;;;;;;18.33;60.21;100606.28;4786122;29;20047;-78
2022/08/26 00:10:34;;;;;;;19.85;15.23;;;;;;;18.28;60.70;100607.31;4772976;29;20055;-78
2022/08/26 00:13:00;;;;;;;31.33;20.95;;;;;;;18.22;60.95;100600.44;4790720;29;20046;-78
2022/08/26 00:15:27;;;;;;;34.58;22.35;;;;;;;18.19;61.39;100598.75;4761433;29;20125;-79
2022/08/26 00:17:53;;;;;;;25.45;16.65;;;;;;;18.16;61.27;100577.78;4787259;29;20492;-80
2022/08/26 00:20:25;;;;;;;35.78;22.20;;;;;;;18.29;61.33;100602.00;4772070;29;20053;-79
2022/08/26 00:22:51;;;;;;;35.67;23.08;;;;;;;18.33;61.47;100603.63;4771436;29;20051;-79
2022/08/26 00:25:18;;;;;;;34.22;20.60;;;;;;;18.44;61.28;100605.09;4757141;29;20047;-77
2022/08/26 00:27:44;;;;;;;23.67;17.45;;;;;;;18.46;61.25;100609.41;4757632;29;20507;-77
2022/08/26 00:30:15;;;;;;;28.15;18.42;;;;;;;18.45;60.93;100607.69;4772677;29;20085;-80
2022/08/26 00:32:42;;;;;;;31.70;17.63;;;;;;;18.34;60.99;100600.09;4772723;29;20142;-78
2022/08/26 00:35:10;;;;;;;27.90;17.92;;;;;;;18.40;61.37;100612.22;4789559;29;20107;-80
2022/08/26 00:37:37;;;;;;;34.20;17.63;;;;;;;18.34;61.34;100607.13;4790138;29;20047;-82
2022/08/26 00:40:05;;;;;;;26.17;17.05;;;;;;;18.30;61.38;100608.13;4782275;29;20081;-80
2022/08/26 00:42:31;;;;;;;26.90;16.90;;;;;;;18.23;61.36;100604.78;4800333;29;20218;-78
2022/08/26 00:44:57;;;;;;;32.40;21.75;;;;;;;18.23;61.32;100612.69;4806920;29;20075;-79
2022/08/26 00:47:31;;;;;;;39.75;23.60;;;;;;;18.29;61.60;100611.69;4795558;29;20054;-78
2022/08/26 00:49:58;;;;;;;34.25;21.60;;;;;;;18.30;61.65;100613.41;4794705;29;20053;-79
2022/08/26 00:52:25;;;;;;;38.65;23.48;;;;;;;18.34;61.69;100613.28;4812141;29;20066;-79
2022/08/26 00:55:03;;;;;;;34.40;21.45;;;;;;;18.39;61.81;100613.13;4811148;29;20055;-79
2022/08/26 00:57:30;;;;;;;42.90;20.25;;;;;;;18.37;61.77;100599.13;4794327;29;20052;-80
2022/08/26 01:00:01;;;;;;;30.85;19.85;;;;;;;18.39;61.54;100607.84;4810679;29;20091;-78
2022/08/26 01:02:27;;;;;;;38.17;23.52;;;;;;;18.34;61.62;100600.09;4776299;29;20047;-80
2022/08/26 01:04:56;;;;;;;35.08;20.92;;;;;;;18.46;61.91;100616.44;4774817;29;20050;-79
2022/08/26 01:07:25;;;;;;;27.42;17.67;;;;;;;18.44;61.74;100607.72;4780561;29;20035;-79
2022/08/26 01:09:51;;;;;;;25.85;18.15;;;;;;;18.41;61.71;100592.88;4796514;29;20043;-78
2022/08/26 01:12:17;;;;;;;32.97;19.98;;;;;;;18.42;61.32;100597.25;4793016;29;20035;-78
2022/08/26 01:14:44;;;;;;;32.28;20.35;;;;;;;18.44;61.39;100605.09;4787894;29;20043;-79
2022/08/26 01:17:11;;;;;;;28.90;17.92;;;;;;;18.43;61.67;100611.25;4785268;29;20135;-79
2022/08/26 01:19:42;;;;;;;30.63;19.90;;;;;;;18.39;61.60;100604.38;4789393;29;20458;-79
2022/08/26 01:22:18;;;;;;;27.58;19.52;;;;;;;18.40;61.51;100600.84;4754559;29;20138;-80
2022/08/26 01:24:49;;;;;;;27.55;21.15;;;;;;;18.38;61.60;100602.66;4771213;29;20047;-86
2022/08/26 01:27:19;;;;;;;31.15;21.02;;;;;;;18.39;61.52;100602.59;4771317;29;20047;-79
2022/08/26 01:29:48;;;;;;;33.50;21.70;;;;;;;18.39;61.17;100593.84;4785766;29;20070;-79
2022/08/26 01:32:21;;;;;;;33.17;21.55;;;;;;;18.38;61.16;100600.00;4769263;29;20477;-80
2022/08/26 01:34:47;;;;;;;31.38;20.00;;;;;;;18.32;61.12;100596.63;4778168;29;20087;-77
2022/08/26 01:37:26;;;;;;;30.05;21.45;;;;;;;18.31;61.23;100597.53;4771420;29;20055;-81
2022/08/26 01:39:55;;;;;;;32.22;20.27;;;;;;;18.30;61.33;100597.59;4770592;29;20608;-78
2022/08/26 01:42:23;;;;;;;33.80;20.63;;;;;;;18.24;61.15;100595.13;4785060;29;20051;-79
2022/08/26 01:45:05;;;;;;;30.73;21.05;;;;;;;18.26;61.45;100602.06;4768883;29;20051;-79
2022/08/26 01:47:32;;;;;;;;;;;;;;;18.25;61.47;100602.13;4769032;29;20118;-80
2022/08/26 01:50:02;;;;;;;42.20;26.42;;;;;;;18.12;61.10;100594.56;4770901;29;19928;-78
2022/08/26 01:52:32;;;;;;;33.00;20.42;;;;;;;18.14;61.82;100602.44;4771193;29;20439;-78
2022/08/26 01:54:59;;;;;;;37.60;23.23;;;;;;;18.11;61.80;100591.97;4769578;29;20614;-79
2022/08/26 01:57:27;;;;;;;32.10;21.48;;;;;;;18.11;61.77;100600.72;4740355;29;20142;-78
2022/08/26 01:59:57;;;;;;;31.70;21.45;;;;;;;18.06;61.65;100603.50;4770469;29;20560;-79
2022/08/26 02:02:23;;;;;;;30.33;20.80;;;;;;;18.01;62.02;100602.75;4790584;29;20145;-77
2022/08/26 02:04:56;;;;;;;32.75;21.08;;;;;;;17.97;62.43;100606.38;4791453;29;20039;-79
2022/08/26 02:07:23;;;;;;;31.40;21.90;;;;;;;17.92;62.66;100593.28;4776066;29;20050;-77
2022/08/26 02:09:49;;;;;;;38.22;24.02;;;;;;;17.96;62.73;100602.00;4775344;29;20049;-80
2022/08/26 02:12:18;;;;;;;34.10;23.38;;;;;;;18.00;62.77;100592.28;4778130;29;20158;-78
2022/08/26 02:14:50;;;;;;;32.80;22.73;;;;;;;17.99;62.68;100591.38;4786664;29;20066;-78
2022/08/26 02:17:20;;;;;;;31.63;22.15;;;;;;;18.07;62.68;100601.75;4798950;29;20055;-78
2022/08/26 02:19:48;;;;;;;37.40;24.17;;;;;;;18.04;62.86;100605.31;4815155;29;20059;-77
2022/08/26 02:22:18;;;;;;;35.33;22.92;;;;;;;18.06;62.95;100610.53;4810861;29;20055;-79
2022/08/26 02:24:57;;;;;;;43.55;27.60;;;;;;;17.98;62.79;100592.31;4794683;29;20125;-79
2022/08/26 02:27:30;;;;;;;31.95;21.73;;;;;;;18.03;63.14;100606.22;4792848;29;20059;-79
2022/08/26 02:29:59;;;;;;;34.58;23.17;;;;;;;18.06;63.12;100611.41;4792228;29;20035;-78
2022/08/26 02:32:25;;;;;;;34.30;21.17;;;;;;;17.98;63.14;100609.84;4775059;29;20050;-79
2022/08/26 02:34:51;;;;;;;29.70;21.38;;;;;;;18.04;62.90;100617.63;4775949;29;20414;-78
2022/08/26 02:37:17;;;;;;;30.63;21.45;;;;;;;18.03;63.11;100619.38;4791513;29;20051;-78
2022/08/26 02:39:43;;;;;;;38.92;24.17;;;;;;;18.04;63.28;100613.19;4792326;29;20508;-78
2022/08/26 02:42:09;;;;;;;31.75;22.35;;;;;;;18.02;63.32;100607.09;4789776;29;20138;-78
2022/08/26 02:44:35;;;;;;;30.77;22.90;;;;;;;17.99;63.16;100608.97;4791557;29;20158;-79
2022/08/26 02:47:02;;;;;;;34.45;22.02;;;;;;;17.99;63.51;100604.56;4760869;29;20053;-79
2022/08/26 02:49:29;;;;;;;36.05;24.20;;;;;;;18.09;63.77;100622.75;4778618;29;20141;-78
2022/08/26 02:51:55;;;;;;;32.05;22.17;;;;;;;18.13;63.54;100632.31;4778439;29;20192;-79
2022/08/26 02:54:21;;;;;;;31.45;22.20;;;;;;;18.15;63.77;100625.22;4791396;29;20095;-77
2022/08/26 02:56:49;;;;;;;32.83;23.60;;;;;;;18.16;63.75;100624.31;4791297;29;20108;-79
2022/08/26 02:59:16;;;;;;;40.90;26.25;;;;;;;18.03;63.23;100605.34;4788441;29;20062;-78
2022/08/26 03:01:43;;;;;;;37.03;25.52;;;;;;;18.11;63.77;100615.69;4792124;29;20054;-79
2022/08/26 03:04:11;;;;;;;38.25;23.55;;;;;;;18.19;64.09;100621.59;4774667;29;20408;-78
2022/08/26 03:06:37;;;;;;;35.78;24.05;;;;;;;18.21;63.87;100620.66;4759063;29;20072;-78
2022/08/26 03:09:04;;;;;;;38.58;24.02;;;;;;;18.13;63.52;100604.19;4744319;29;20384;-79
2022/08/26 03:11:31;;;;;;;34.90;23.17;;;;;;;18.32;63.77;100622.97;4758912;29;20043;-81
2022/08/26 03:13:57;;;;;;;37.60;24.27;;;;;;;18.42;63.75;100628.84;4787510;29;20039;-80
2022/08/26 03:16:23;;;;;;;33.38;22.63;;;;;;;18.49;63.60;100629.53;4788577;29;20062;-79
2022/08/26 03:18:49;;;;;;;31.25;22.63;;;;;;;18.49;63.34;100621.63;4787065;29;20051;-78
2022/08/26 03:21:17;;;;;;;32.72;22.45;;;;;;;18.58;63.24;100628.41;4787938;29;20051;-76
2022/08/26 03:23:44;;;;;;;34.28;23.00;;;;;;;18.61;63.06;100617.78;4788286;29;20078;-80
2022/08/26 03:26:12;;;;;;;41.28;24.38;;;;;;;18.72;62.97;100636.78;4757229;29;20054;-77
2022/08/26 03:30:38;;;;;;;38.92;23.95;;;;;;;18.75;62.73;100636.72;4750188;29;20067;-79
2022/08/26 03:31:25;;;;;;;30.73;21.55;;;;;;;18.73;62.85;100616.56;4788530;29;20047;-77
2022/08/26 03:33:52;;;;;;;28.45;21.23;;;;;;;18.85;62.72;100621.47;4787119;29;20074;-80
2022/08/26 03:36:18;;;;;;;33.83;21.88;;;;;;;19.00;62.44;100627.22;4771458;29;20071;-78
2022/08/26 03:38:44;;;;;;;31.42;20.33;;;;;;;19.17;62.38;100634.59;4756838;29;20050;-79
2022/08/26 03:41:11;;;;;;;28.92;22.10;;;;;;;19.24;62.10;100625.56;4787268;29;21210;-79
2022/08/26 03:43:38;;;;;;;27.88;21.00;;;;;;;19.37;61.70;100621.63;4789420;29;20056;-78
2022/08/26 03:46:09;;;;;;;35.25;22.70;;;;;;;19.45;61.58;100610.81;4771887;29;20047;-80
2022/08/26 03:48:36;;;;;;;32.53;22.17;;;;;;;19.55;61.18;100614.03;4787593;29;20298;-80
2022/08/26 03:51:09;;;;;;;34.30;23.38;;;;;;;19.74;61.02;100626.59;4748852;29;20039;-80
2022/08/26 03:53:36;;;;;;;29.55;22.33;;;;;;;19.84;60.81;100618.31;4770341;29;20047;-79
2022/08/26 03:56:02;;;;;;;36.53;22.48;;;;;;;19.92;60.55;100620.72;4760959;29;20057;-78
2022/08/26 03:58:30;;;;;;;27.33;21.25;;;;;;;20.08;60.35;100628.97;4793827;29;20043;-78
2022/08/26 04:00:57;;;;;;;27.95;20.83;;;;;;;20.10;60.16;100603.34;4801531;29;20416;-79
2022/08/26 04:06:10;;;;;;;34.20;22.35;;;;;;;20.66;59.54;100629.53;4782032;29;20059;-79
2022/08/26 04:08:36;;;;;;;29.92;22.98;;;;;;;20.83;59.22;100631.56;4760981;29;20080;-79
2022/08/26 04:11:03;;;;;;;31.85;23.35;;;;;;;21.03;58.92;100636.06;4790991;29;20051;-76
2022/08/26 04:13:29;;;;;;;29.27;21.15;;;;;;;21.25;58.60;100629.91;4775923;29;20066;-80
2022/08/26 04:15:56;;;;;;;29.67;22.55;;;;;;;21.41;58.26;100636.31;4772261;29;20046;-79
2022/08/26 04:18:22;;;;;;;32.53;22.63;;;;;;;21.69;57.87;100629.06;4772279;29;20099;-79
2022/08/26 04:20:49;;;;;;;31.10;21.75;;;;;;;21.96;57.35;100629.66;4793297;29;20042;-77
2022/08/26 04:23:16;;;;;;;35.58;22.70;;;;;;;22.23;56.56;100627.56;4779561;29;20054;-79
2022/08/26 04:25:42;;;;;;;31.13;21.80;;;;;;;22.51;56.36;100628.16;4758523;29;20047;-78
2022/08/26 04:28:08;;;;;;;30.23;21.27;;;;;;;22.71;55.57;100622.81;4771418;29;20055;-80
2022/08/26 04:30:38;;;;;;;29.25;20.73;;;;;;;23.00;55.04;100622.34;4772126;29;20077;-81
2022/08/26 04:33:06;;;;;;;32.08;21.73;;;;;;;23.25;54.38;100614.06;4756612;29;20055;-78
2022/08/26 04:35:34;;;;;;;28.90;20.35;;;;;;;23.59;53.75;100616.84;4786725;29;20051;-80
2022/08/26 04:38:00;;;;;;;28.08;19.92;;;;;;;23.84;52.54;100619.09;4785628;29;20440;-78
2022/08/26 04:40:26;;;;;;;28.60;19.55;;;;;;;24.03;52.35;100616.38;4787679;29;20139;-80
2022/08/26 04:42:53;;;;;;;31.45;17.73;;;;;;;24.13;51.20;100606.13;4786652;29;20045;-81
2022/08/26 04:45:19;;;;;;;26.58;17.60;;;;;;;24.30;50.87;100613.22;4771769;29;20071;-79
2022/08/26 04:47:45;;;;;;;23.58;17.92;;;;;;;24.46;50.65;100621.22;4787108;29;20103;-79
2022/08/26 04:50:12;;;;;;;29.17;16.70;;;;;;;24.69;50.13;100612.91;4751750;29;20051;-79
2022/08/26 04:52:38;;;;;;;27.50;17.27;;;;;;;24.89;49.65;100604.69;4787553;29;20100;-80
2022/08/26 04:55:05;;;;;;;28.27;17.60;;;;;;;25.22;49.43;100616.19;4791253;29;20046;-79
2022/08/26 04:57:38;;;;;;;28.20;17.00;;;;;;;25.37;48.50;100607.31;4786329;29;20043;-78
2022/08/26 05:00:11;;;;;;;28.10;17.35;;;;;;;25.61;48.28;100604.16;4787812;29;20112;-78
2022/08/26 05:05:40;;;;;;;41.67;23.15;;;;;;;25.90;47.53;100572.25;4769644;29;20813;-78
2022/08/26 05:08:35;;;;;;;41.00;28.00;;;;;;;26.14;47.05;100558.38;4783129;29;20097;-80
2022/08/26 05:11:10;;;;;;;40.28;27.65;;;;;;;26.65;47.33;100608.53;4769823;29;20042;-77
2022/08/26 05:13:43;;;;;;;38.83;24.73;;;;;;;27.09;47.08;100617.31;4771287;29;20767;-79
2022/08/26 05:16:55;;;;;;;35.15;22.98;;;;;;;27.93;46.07;100617.13;4737210;29;20523;-79
2022/08/26 05:19:22;;;;;;;32.72;22.55;;;;;;;29.37;44.84;100612.22;4769779;29;20046;-79
2022/08/26 05:21:50;;;;;;;31.75;18.40;;;;;;;30.82;41.73;100611.78;4785653;29;20109;-79
2022/08/26 05:24:20;;;;;;;24.95;17.23;;;;;;;32.08;39.24;100616.47;4770350;29;20070;-79
2022/08/26 05:26:49;;;;;;;26.52;17.00;;;;;;;33.22;37.24;100609.13;4771812;29;20111;-79
2022/08/26 05:29:17;;;;;;;26.42;16.27;;;;;;;34.26;35.90;100603.00;4770780;29;20043;-79
2022/08/26 05:31:44;;;;;;;22.05;15.75;;;;;;;35.48;33.72;100608.19;4756668;29;20047;-80
2022/08/26 05:34:10;;;;;;;23.08;15.68;;;;;;;36.41;31.95;100602.16;4786583;29;20111;-79
2022/08/26 05:36:48;;;;;;;21.90;15.15;;;;;;;37.19;30.32;100600.13;4757045;29;20047;-79
2022/08/26 05:39:25;;;;;;;19.55;14.93;;;;;;;38.05;28.98;100602.47;4774145;29;20050;-79
2022/08/26 05:41:51;;;;;;;20.13;13.75;;;;;;;39.04;27.61;100611.13;4756685;29;20059;-80
2022/08/26 05:44:19;;;;;;;21.05;14.50;;;;;;;39.96;26.45;100612.03;4790704;29;20565;-78
2022/08/26 05:46:45;;;;;;;22.58;14.50;;;;;;;40.67;25.32;100616.97;4790905;29;20054;-80
2022/08/26 05:49:14;;;;;;;19.10;13.73;;;;;;;41.33;24.38;100605.03;4790713;29;20055;-80
2022/08/26 05:51:43;;;;;;;17.45;14.32;;;;;;;42.02;23.17;100615.41;4801602;29;20031;-80
2022/08/26 05:54:10;;;;;;;22.10;13.90;;;;;;;42.67;22.34;100623.25;4804204;29;20035;-78
2022/08/26 05:56:38;;;;;;;16.73;13.10;;;;;;;43.23;21.25;100624.00;4787932;29;20127;-77
2022/08/26 05:59:14;;;;;;;24.08;14.18;;;;;;;43.85;20.32;100618.28;4785563;29;20174;-77
2022/08/26 06:01:44;;;;;;;21.13;13.88;;;;;;;44.32;19.38;100616.22;4797586;29;20081;-82
2022/08/26 06:04:12;;;;;;;;;;;;;;;45.02;19.42;100622.84;4783846;29;20162;-79
2022/08/26 06:06:42;;;;;;;20.35;11.88;;;;;;;45.48;18.62;100611.69;4770587;29;19921;-81
2022/08/26 06:09:11;;;;;;;18.50;12.10;;;;;;;45.91;17.68;100621.00;4796988;29;20043;-79
2022/08/26 06:11:38;;;;;;;15.35;12.13;;;;;;;46.38;17.36;100613.03;4768187;29;20051;-79
2022/08/26 06:14:07;;;;;;;23.75;13.13;;;;;;;46.61;16.68;100603.22;4797689;29;20043;-78
2022/08/26 06:16:45;;;;;;;21.88;14.98;;;;;;;46.92;16.18;100615.03;4800177;29;20119;-78
2022/08/26 06:19:14;;;;;;;17.58;12.48;;;;;;;47.20;15.35;100622.66;4795414;29;20107;-78
2022/08/26 06:21:44;;;;;;;20.27;12.15;;;;;;;47.77;14.25;100623.97;4788460;29;20134;-82
2022/08/26 06:27:03;;;;;;;13.07;11.07;;;;;;;48.81;13.39;100626.03;4762545;29;20047;-79
2022/08/26 06:29:35;;;;;;;18.77;13.27;;;;;;;49.29;12.87;100618.28;4785736;29;20563;-80
2022/08/26 06:32:02;;;;;;;21.40;11.25;;;;;;;49.77;12.96;100618.69;4771787;29;20074;-81
2022/08/26 06:34:28;;;;;;;20.40;11.85;;;;;;;50.28;12.08;100623.22;4786621;29;20062;-77
2022/08/26 06:36:57;;;;;;;20.00;11.70;;;;;;;50.52;11.96;100625.72;4784947;29;20534;-80
2022/08/26 06:39:26;;;;;;;18.10;11.30;;;;;;;51.02;11.85;100604.31;4769522;29;20097;-79
2022/08/26 06:41:54;;;;;;;19.60;10.77;;;;;;;51.61;11.58;100621.88;4786526;29;20040;-80
2022/08/26 06:44:27;;;;;;;16.45;11.48;;;;;;;51.56;11.20;100619.09;4784335;29;20054;-77
2022/08/26 06:47:16;;;;;;;15.68;10.43;;;;;;;51.77;10.35;100620.03;4773394;29;20043;-79
2022/08/26 06:49:42;;;;;;;18.45;9.85;;;;;;;52.22;10.56;100615.75;4774761;29;20131;-80
2022/08/26 06:52:08;;;;;;;16.33;10.20;;;;;;;52.57;9.51;100616.13;4758317;29;20046;-78
2022/08/26 06:54:40;;;;;;;21.08;10.82;;;;;;;53.04;9.60;100605.88;4761074;29;20051;-80
2022/08/26 06:57:06;;;;;;;18.08;10.80;;;;;;;53.28;10.08;100599.75;4758781;29;20067;-80
2022/08/26 06:59:33;;;;;;;14.15;11.90;;;;;;;53.24;9.59;100591.13;4754712;30;20134;-79
2022/08/26 07:01:59;;;;;;;14.20;11.85;;;;;;;53.70;9.53;100620.75;4774607;29;20054;-79
2022/08/26 07:04:28;;;;;;;13.52;11.13;;;;;;;53.79;9.08;100598.75;4752091;29;20043;-76
2022/08/26 07:06:55;;;;;;;15.52;11.38;;;;;;;54.46;8.92;100609.50;4773409;30;20043;-82
2022/08/26 07:09:24;;;;;;;19.67;11.23;;;;;;;53.96;8.63;100608.72;4772157;29;20047;-78
2022/08/26 07:11:54;;;;;;;13.98;10.10;;;;;;;54.49;8.58;100613.69;4770307;29;20138;-79
2022/08/26 07:14:23;;;;;;;12.20;10.10;;;;;;;54.68;8.03;100611.03;4768709;30;20400;-78
2022/08/26 07:16:50;;;;;;;13.48;11.07;;;;;;;54.64;8.21;100610.78;4760651;30;20044;-78
2022/08/26 07:19:18;;;;;;;13.18;10.05;;;;;;;54.91;7.16;100603.03;4771341;29;20132;-78
2022/08/26 07:21:44;;;;;;;12.90;9.70;;;;;;;55.41;6.92;100590.84;4766310;29;20044;-78
2022/08/26 07:24:11;;;;;;;13.13;9.45;;;;;;;55.79;6.73;100616.88;4772827;29;20047;-82
2022/08/26 07:26:54;;;;;;;10.23;9.10;;;;;;;55.95;6.54;100603.53;4771712;30;20040;-78
2022/08/26 07:29:20;;;;;;;10.73;9.70;;;;;;;56.49;6.71;100606.09;4780515;30;20074;-78
2022/08/26 07:31:47;;;;;;;10.18;9.23;;;;;;;56.20;6.31;100590.34;4776568;30;20511;-82
2022/08/26 07:34:13;;;;;;;10.10;9.18;;;;;;;56.66;6.55;100611.16;4783947;30;20050;-77
2022/08/26 07:36:39;;;;;;;12.02;9.30;;;;;;;56.49;6.97;100600.53;4776639;30;20070;-77
2022/08/26 07:39:05;;;;;;;9.80;8.90;;;;;;;56.45;6.89;100604.22;4783012;30;20516;-79
2022/08/26 07:41:34;;;;;;;14.00;9.75;;;;;;;56.38;7.01;100601.84;4770085;30;20043;-79
2022/08/26 07:44:00;;;;;;;11.68;10.48;;;;;;;56.76;6.79;100607.34;4792119;29;20065;-80
2022/08/26 07:46:27;;;;;;;20.20;18.23;;;;;;;56.70;6.38;100601.03;4783969;30;20120;-77
2022/08/26 07:48:53;;;;;;;14.75;12.40;;;;;;;56.81;6.22;100596.09;4763860;30;20050;-79
2022/08/26 07:51:21;;;;;;;12.35;11.15;;;;;;;56.82;6.19;100597.75;4787405;29;20146;-78
2022/08/26 07:53:48;;;;;;;12.15;10.95;;;;;;;57.19;6.25;100600.72;4791546;29;20054;-77
2022/08/26 07:56:14;;;;;;;10.90;9.85;;;;;;;57.71;5.76;100594.91;4785978;29;20079;-79
2022/08/26 07:58:42;;;;;;;14.15;12.95;;;;;;;57.73;5.84;100592.59;4767453;29;20035;-79
2022/08/26 08:01:08;;;;;;;10.55;9.55;;;;;;;57.34;6.38;100599.59;4769409;30;20064;-77
2022/08/26 08:03:40;;;;;;;10.30;9.30;;;;;;;56.96;6.24;100592.19;4771973;29;20051;-79
2022/08/26 08:06:06;;;;;;;14.40;9.90;;;;;;;56.86;5.84;100589.59;4742306;30;20039;-79
2022/08/26 08:08:34;;;;;;;10.75;9.82;;;;;;;56.56;5.67;100592.63;4764968;30;20052;-79
2022/08/26 08:11:02;;;;;;;10.20;9.30;;;;;;;56.51;5.49;100591.81;4773434;30;20055;-79
2022/08/26 08:13:28;;;;;;;;;;;;;;;56.55;6.53;100598.50;4770009;30;20071;-81
2022/08/26 08:15:54;;;;;;;9.95;9.05;;;;;;;57.04;5.44;100592.63;4774804;30;20018;-78
2022/08/26 08:18:31;;;;;;;11.05;9.63;;;;;;;57.18;5.38;100582.28;4739772;30;20043;-86
2022/08/26 08:21:11;;;;;;;9.77;8.80;;;;;;;55.27;6.12;100580.41;4768467;29;20043;-85
2022/08/26 08:23:38;;;;;;;10.30;9.32;;;;;;;54.98;6.84;100592.41;4758059;30;20087;-77
2022/08/26 08:26:09;;;;;;;9.75;8.80;;;;;;;54.59;6.14;100579.34;4769903;30;20043;-79
2022/08/26 08:28:37;;;;;;;9.70;8.70;;;;;;;54.56;6.30;100577.16;4772704;29;20114;-79
2022/08/26 08:31:17;;;;;;;11.07;10.00;;;;;;;54.78;6.68;100577.53;4766496;30;20516;-78
2022/08/26 08:33:43;;;;;;;10.52;9.20;;;;;;;55.00;5.91;100583.72;4772406;29;20043;-80
2022/08/26 08:36:09;;;;;;;10.50;9.50;;;;;;;54.34;6.30;100578.44;4777627;29;20476;-80
2022/08/26 08:38:35;;;;;;;9.23;8.35;;;;;;;54.54;6.25;100568.25;4749584;30;20051;-79
2022/08/26 08:41:01;;;;;;;9.88;9.07;;;;;;;55.83;6.12;100583.63;4770510;30;20070;-82
2022/08/26 08:43:43;;;;;;;9.43;8.48;;;;;;;56.20;5.21;100575.56;4774806;29;20086;-80
2022/08/26 08:46:31;;;;;;;14.57;9.15;;;;;;;55.60;6.18;100552.69;4762896;30;20051;-82
2022/08/26 08:49:03;;;;;;;11.27;9.93;;;;;;;55.66;5.70;100559.88;4769514;30;20104;-82
2022/08/26 08:51:53;;;;;;;9.75;8.93;;;;;;;54.21;5.96;100552.06;4769898;29;20142;-81
2022/08/26 08:54:28;;;;;;;8.95;8.10;;;;;;;52.88;7.00;100559.78;4783301;30;20428;-79
2022/08/26 08:57:13;;;;;;;8.75;7.95;;;;;;;52.85;6.85;100561.19;4784750;29;20052;-81
2022/08/26 09:00:12;;;;;;;9.43;8.30;;;;;;;53.11;5.81;100556.44;4769313;30;20080;-83
2022/08/26 09:03:02;;;;;;;9.32;8.63;;;;;;;53.05;6.57;100565.06;4772083;29;20077;-77
2022/08/26 09:05:40;;;;;;;10.00;9.05;;;;;;;53.80;6.42;100552.31;4769984;30;20460;-79
2022/08/26 09:08:29;;;;;;;9.60;8.93;;;;;;;55.58;5.80;100554.97;4758627;30;20424;-77
2022/08/26 09:11:16;;;;;;;9.85;8.73;;;;;;;57.01;4.54;100566.94;4769488;30;20050;-78
2022/08/26 09:13:50;;;;;;;10.70;8.93;;;;;;;56.09;5.16;100547.00;4774876;30;20148;-79
2022/08/26 09:16:23;;;;;;;10.68;9.75;;;;;;;55.81;4.96;100561.63;4770405;30;20105;-79
2022/08/26 09:19:23;;;;;;;10.27;9.23;;;;;;;55.73;5.15;100555.91;4771406;30;20077;-78
2022/08/26 09:21:58;;;;;;;10.65;9.07;;;;;;;56.53;5.13;100550.47;4769909;30;20047;-80
2022/08/26 09:24:25;;;;;;;9.80;8.85;;;;;;;56.27;5.17;100551.75;4771601;30;20531;-78
2022/08/26 09:26:56;;;;;;;10.63;9.73;;;;;;;55.40;5.25;100548.19;4770029;30;20044;-79
2022/08/26 09:29:34;;;;;;;9.90;8.90;;;;;;;53.78;5.89;100529.53;4787815;29;20054;-78
2022/08/26 09:32:23;;;;;;;9.43;8.65;;;;;;;53.44;6.12;100539.38;4798131;29;20188;-78
2022/08/26 09:35:23;;;;;;;9.75;8.95;;;;;;;52.98;6.29;100537.56;4770197;30;20075;-80
2022/08/26 09:37:52;;;;;;;9.35;8.55;;;;;;;52.47;6.93;100516.19;4793851;29;20050;-79
2022/08/26 09:40:37;;;;;;;10.13;8.65;;;;;;;52.24;6.57;100535.03;4801192;29;20047;-78
2022/08/26 09:43:05;;;;;;;8.93;8.20;;;;;;;52.04;6.22;100536.66;4793010;29;20054;-78
2022/08/26 09:45:35;;;;;;;9.60;8.60;;;;;;;52.94;6.18;100526.19;4757737;30;20091;-79
2022/08/26 09:48:05;;;;;;;12.25;9.13;;;;;;;53.64;6.11;100532.09;4788841;29;20465;-77
2022/08/26 09:50:51;;;;;;;10.63;9.48;;;;;;;52.51;5.99;100536.72;4775217;30;20052;-76
2022/08/26 09:53:51;;;;;;;10.18;9.27;;;;;;;50.65;7.24;100525.66;4785963;29;20088;-77
2022/08/26 09:56:26;;;;;;;11.63;10.40;;;;;;;51.12;7.16;100535.13;4773629;30;20059;-76
2022/08/26 09:58:57;;;;;;;16.52;14.85;;;;;;;51.29;7.35;100525.84;4772566;30;20050;-79
2022/08/26 10:01:40;;;;;;;10.00;9.07;;;;;;;52.25;6.68;100518.16;4753555;30;20066;-78
2022/08/26 10:04:25;;;;;;;16.67;9.75;;;;;;;51.53;7.13;100521.47;4754063;30;20051;-80
2022/08/26 10:07:08;;;;;;;10.80;8.50;;;;;;;50.44;7.09;100478.41;4786538;29;20051;-81
2022/08/26 10:09:44;;;;;;;8.68;7.97;;;;;;;52.23;6.44;100513.94;4754922;30;20047;-81
2022/08/26 10:12:19;;;;;;;19.38;16.65;;;;;;;51.03;6.55;100511.81;4783061;29;20473;-81
2022/08/26 10:15:32;;;;;;;17.02;13.45;;;;;;;49.29;7.48;100466.38;4790691;29;20048;-85
2022/08/26 10:18:47;;;;;;;8.80;8.00;;;;;;;48.93;7.47;100458.41;4785002;29;20062;-80
2022/08/26 10:21:53;;;;;;;8.38;7.68;;;;;;;48.54;8.10;100511.59;4785571;29;20118;-81
2022/08/26 10:24:29;;;;;;;9.50;7.63;;;;;;;48.16;8.19;100465.41;4790971;29;20071;-79
2022/08/26 10:27:46;;;;;;;14.95;8.07;;;;;;;48.15;7.94;100492.16;4790128;29;20055;-78
2022/08/26 10:30:17;;;;;;;8.63;7.38;;;;;;;47.24;8.61;100499.09;4737867;30;20422;-80
2022/08/26 10:32:53;;;;;;;8.50;7.70;;;;;;;47.23;9.06;100494.66;4772365;29;20059;-80
2022/08/26 10:35:20;;;;;;;8.85;7.78;;;;;;;46.70;8.79;100502.72;4761147;30;20149;-79
2022/08/26 10:38:03;;;;;;;9.10;6.88;;;;;;;46.24;8.85;100482.28;4792830;29;20058;-80
2022/08/26 10:41:13;;;;;;;8.60;6.63;;;;;;;45.05;8.79;100487.06;4776594;29;20137;-79
2022/08/26 10:43:55;;;;;;;7.47;6.28;;;;;;;43.20;9.42;100480.19;4788205;29;20110;-78
2022/08/26 10:46:58;;;;;;;7.85;6.47;;;;;;;42.07;10.49;100489.94;4801519;29;20058;-79
2022/08/26 10:49:24;;;;;;;6.97;6.28;;;;;;;41.30;10.46;100463.50;4787969;29;20079;-78
2022/08/26 10:52:16;;;;;;;7.78;6.28;;;;;;;40.54;11.08;100464.97;4787045;29;20154;-79
2022/08/26 10:54:59;;;;;;;7.27;6.50;;;;;;;39.88;11.15;100449.59;4801816;29;20523;-78
2022/08/26 10:57:42;;;;;;;8.00;7.25;;;;;;;39.25;11.58;100426.31;4774781;30;20043;-78
2022/08/26 11:03:57;;;;;;;8.05;6.95;;;;;;;38.94;12.50;100473.56;4794219;29;20043;-79
2022/08/26 11:07:03;;;;;;;7.70;7.00;;;;;;;38.69;12.79;100468.31;4778267;29;20103;-81
2022/08/26 11:13:11;;;;;;;9.27;7.18;;;;;;;37.81;14.07;100460.31;4779094;29;20081;-78
2022/08/26 11:15:39;;;;;;;12.52;10.77;;;;;;;37.62;14.31;100483.28;4773234;29;20055;-79
2022/08/26 11:18:57;;;;;;;16.38;9.98;;;;;;;36.43;15.31;100406.94;4799547;29;20035;-79
2022/08/26 11:25:09;;;;;;;14.15;10.60;;;;;;;35.93;16.27;100463.69;4779324;29;20063;-79
2022/08/26 11:27:36;;;;;;;22.95;18.48;;;;;;;35.86;16.41;100462.66;4789297;29;20048;-78
2022/08/26 11:30:05;;;;;;;13.70;9.23;;;;;;;35.74;16.49;100462.94;4791175;29;20054;-79
2022/08/26 11:32:34;;;;;;;10.15;7.65;;;;;;;35.78;16.03;100459.91;4798270;29;20059;-79
2022/08/26 11:35:25;;;;;;;8.90;7.38;;;;;;;35.41;15.95;100429.44;4789512;29;20078;-78
2022/08/26 11:38:15;;;;;;;11.02;9.13;;;;;;;35.30;16.48;100460.31;4795997;29;20046;-79
2022/08/26 11:40:42;;;;;;;;;;;;;;;35.08;16.65;100450.88;4809595;29;20050;-81
2022/08/26 11:43:29;;;;;;;13.07;10.10;;;;;;;34.84;16.88;100412.66;4797791;29;20020;-79
2022/08/26 11:46:00;;;;;;;9.90;8.50;;;;;;;35.16;16.87;100444.69;4778926;30;20076;-80
2022/08/26 11:48:29;;;;;;;12.23;7.82;;;;;;;35.12;16.82;100446.84;4791211;29;20038;-80
2022/08/26 11:51:02;;;;;;;9.05;6.57;;;;;;;34.89;17.02;100447.31;4795324;29;20046;-80
2022/08/26 11:53:36;;;;;;;7.13;6.20;;;;;;;34.53;16.94;100431.16;4778472;29;20583;-79
2022/08/26 11:56:14;;;;;;;7.10;6.28;;;;;;;34.37;17.07;100434.53;4774629;30;20047;-80
2022/08/26 11:58:46;;;;;;;6.40;5.80;;;;;;;34.28;17.05;100449.78;4771149;29;20054;-79